<?xml version='1.0' encoding='UTF-8'?>
<gpx xmlns="http://www.topografix.com/GPX/1/1" creator="www.balnam.be" version="1.1" xmlns:xsi="http://www.w3.org/2001/XMLSchema-instance" xsi:schemaLocation="http://www.topografix.com/GPX/1/1 http://www.topografix.com/GPX/1/1/gpx.xsd">
<trk>
<name>hbchy5</name>
<cmt>v</cmt>
<desc>Hennuyères Chemin n°5 Sentier du Goutteux</desc>
<link href="https://chemins.be/hennuyeres/chemin/5"/><trkseg>
<trkpt lat="50.647411" lon="4.173554"><time>2026-05-03T05:38:14Z</time></trkpt>
<trkpt lat="50.646979" lon="4.173302"><time>2026-05-03T05:48:14Z</time></trkpt>
<trkpt lat="50.646943" lon="4.173245"><time>2026-05-03T05:58:14Z</time></trkpt>
<trkpt lat="50.646861" lon="4.173090"><time>2026-05-03T06:08:14Z</time></trkpt>
<trkpt lat="50.646807" lon="4.172963"><time>2026-05-03T06:18:14Z</time></trkpt>
<trkpt lat="50.646789" lon="4.172906"><time>2026-05-03T06:28:14Z</time></trkpt>
<trkpt lat="50.646726" lon="4.172652"><time>2026-05-03T06:38:14Z</time></trkpt>
<trkpt lat="50.646465" lon="4.172399"><time>2026-05-03T06:48:14Z</time></trkpt>
<trkpt lat="50.646321" lon="4.172201"><time>2026-05-03T06:58:14Z</time></trkpt>
<trkpt lat="50.646032" lon="4.171835"><time>2026-05-03T07:08:14Z</time></trkpt>
<trkpt lat="50.645942" lon="4.171779"><time>2026-05-03T07:18:14Z</time></trkpt>
<trkpt lat="50.645879" lon="4.171751"><time>2026-05-03T07:28:14Z</time></trkpt>
<trkpt lat="50.645807" lon="4.171737"><time>2026-05-03T07:38:14Z</time></trkpt>
<trkpt lat="50.645654" lon="4.171723"><time>2026-05-03T07:48:14Z</time></trkpt>
<trkpt lat="50.645367" lon="4.171668"><time>2026-05-03T07:58:14Z</time></trkpt>
<trkpt lat="50.645277" lon="4.171626"><time>2026-05-03T08:08:14Z</time></trkpt>
<trkpt lat="50.645196" lon="4.171584"><time>2026-05-03T08:18:14Z</time></trkpt>
<trkpt lat="50.644602" lon="4.171134"><time>2026-05-03T08:28:14Z</time></trkpt>
<trkpt lat="50.643872" lon="4.170716"><time>2026-05-03T08:38:14Z</time></trkpt>
<trkpt lat="50.643067" lon="4.170115"><time>2026-05-03T08:48:14Z</time></trkpt>
<trkpt lat="50.642549" lon="4.169517"><time>2026-05-03T08:58:14Z</time></trkpt>
<trkpt lat="50.642073" lon="4.169391"><time>2026-05-03T09:08:14Z</time></trkpt>
<trkpt lat="50.641173" lon="4.168872"><time>2026-05-03T09:18:14Z</time></trkpt>
<trkpt lat="50.640840" lon="4.168831"><time>2026-05-03T09:28:14Z</time></trkpt>
<trkpt lat="50.640355" lon="4.168847"><time>2026-05-03T09:38:14Z</time></trkpt>
<trkpt lat="50.639616" lon="4.168144"><time>2026-05-03T09:48:14Z</time></trkpt>
<trkpt lat="50.639058" lon="4.167920"><time>2026-05-03T09:58:14Z</time></trkpt>
<trkpt lat="50.638457" lon="4.168756"><time>2026-05-03T10:08:14Z</time></trkpt>
</trkseg>
</trk>
</gpx>